Airfield :
LOGIN :

Register | Disclaimer

   EN    FR    IT 

 










Legend :    VFR   Marginal VFR   IFR   Intensive IFR   Very Intensive IFR
Visi :
Ceiling :
>= 8 km
>= 3000ft
5 to 8 km
1000 to 3000 ft
1500m to 5 km
500 to 1000 ft
800 to 1500m
200 to 500 ft
< 800m
< 200 ft
Symbols :   Thunderstorms  Fog  Heavy snow  Heavy precipitations  Wind > 20 kt
SIGMETs :     Misc.  Thunderstorms  Icing  Turbulence  Mountain Waves  Volcanic Ashes







- Airport Elevation : 12 ft
- IATA code : BCN


LEBL - Barcelone

CURRENT METAR :
  • 240600Z 33007KT 290V010 CAVOK 24/15 Q1016 NOSIG

EXPIRED METARs :
  • 240530Z 33003KT 300V010 CAVOK 23/15 Q1016 NOSIG
  • 240500Z 35004KT 9999 FEW030 23/16 Q1016 NOSIG
  • 240430Z 33007KT 9999 FEW030 23/16 Q1016 NOSIG
  • 240400Z 33006KT 9999 FEW030 23/17 Q1016 NOSIG
  • 240330Z 32004KT 9999 FEW030 23/17 Q1015 NOSIG

TAF TAF LEBL
Valid from the 24 at 06:00 until the 25 at 06:00 UTC


240500Z 2406/2506 VRB04KT 9999 FEW030 TX31/2412Z TN23/2506Z
TEMPO 2406/2408 33007KT
BECMG 2408/2410 14010KT
BECMG 2411/2413 20010KT
BECMG 2420/2422 VRB03KT
TEMPO 2422/2506 33007KT
No reported NOTAMs for that airfield.



MET'MAP, your aeronautical weather chart ! - Copyright ORBIFLY December 2007 - Disclaimer

ORBIFLY MET'MAP TEAM :

Programming & Development : Alexandra Zaïnal
Concept & Development : Baudouin d'Aumeries
Co-Development & Prog : Marc-Olivier Méhu
Technical & hardware support : Manuel Goepfert

Contact : metmap@orbifly.com




SOURCES & CREDITS :

   NOAA